sensor_id;sensor_type;location;lat;lon;timestamp;temperature;humidity
51863;DHT22;37900;52.996;6.278;2024-01-27T00:01:39;17.20;75.90
51863;DHT22;37900;52.996;6.278;2024-01-27T00:04:05;17.20;75.80
51863;DHT22;37900;52.996;6.278;2024-01-27T00:06:30;17.20;75.80
51863;DHT22;37900;52.996;6.278;2024-01-27T00:08:56;17.20;75.70
51863;DHT22;37900;52.996;6.278;2024-01-27T00:11:22;17.20;75.70
51863;DHT22;37900;52.996;6.278;2024-01-27T00:13:50;17.20;75.60
51863;DHT22;37900;52.996;6.278;2024-01-27T00:16:15;17.10;75.50
51863;DHT22;37900;52.996;6.278;2024-01-27T00:18:41;17.10;75.50
51863;DHT22;37900;52.996;6.278;2024-01-27T00:21:07;17.10;75.40
51863;DHT22;37900;52.996;6.278;2024-01-27T00:23:33;17.10;75.40
51863;DHT22;37900;52.996;6.278;2024-01-27T00:26:00;17.10;75.40
51863;DHT22;37900;52.996;6.278;2024-01-27T00:28:26;17.10;75.40
51863;DHT22;37900;52.996;6.278;2024-01-27T00:30:52;17.10;75.30
51863;DHT22;37900;52.996;6.278;2024-01-27T00:33:17;17.10;75.30
51863;DHT22;37900;52.996;6.278;2024-01-27T00:35:43;17.10;75.30
51863;DHT22;37900;52.996;6.278;2024-01-27T00:38:09;17.10;75.20
51863;DHT22;37900;52.996;6.278;2024-01-27T00:40:35;17.10;75.20
51863;DHT22;37900;52.996;6.278;2024-01-27T00:43:02;17.10;75.20
51863;DHT22;37900;52.996;6.278;2024-01-27T00:45:28;17.00;75.10
51863;DHT22;37900;52.996;6.278;2024-01-27T00:47:56;17.00;75.00
51863;DHT22;37900;52.996;6.278;2024-01-27T00:50:22;17.00;75.00
51863;DHT22;37900;52.996;6.278;2024-01-27T00:52:47;17.00;75.00
51863;DHT22;37900;52.996;6.278;2024-01-27T00:55:13;17.00;75.00
51863;DHT22;37900;52.996;6.278;2024-01-27T00:57:39;17.00;74.90
51863;DHT22;37900;52.996;6.278;2024-01-27T01:00:07;17.00;74.90
51863;DHT22;37900;52.996;6.278;2024-01-27T01:02:33;17.00;74.90
51863;DHT22;37900;52.996;6.278;2024-01-27T01:04:58;17.00;74.80
51863;DHT22;37900;52.996;6.278;2024-01-27T01:07:24;16.90;74.80
51863;DHT22;37900;52.996;6.278;2024-01-27T01:09:50;17.00;74.80
51863;DHT22;37900;52.996;6.278;2024-01-27T01:12:16;16.90;74.70
51863;DHT22;37900;52.996;6.278;2024-01-27T01:14:42;16.90;74.70
51863;DHT22;37900;52.996;6.278;2024-01-27T01:17:08;16.90;74.70
51863;DHT22;37900;52.996;6.278;2024-01-27T01:19:34;16.90;74.70
51863;DHT22;37900;52.996;6.278;2024-01-27T01:21:59;16.90;74.70
51863;DHT22;37900;52.996;6.278;2024-01-27T01:24:25;16.90;74.60
51863;DHT22;37900;52.996;6.278;2024-01-27T01:26:51;16.90;74.60
51863;DHT22;37900;52.996;6.278;2024-01-27T01:29:16;16.90;74.60
51863;DHT22;37900;52.996;6.278;2024-01-27T01:31:43;16.90;74.60
51863;DHT22;37900;52.996;6.278;2024-01-27T01:34:08;16.90;74.60
51863;DHT22;37900;52.996;6.278;2024-01-27T01:36:34;16.80;74.50
51863;DHT22;37900;52.996;6.278;2024-01-27T01:39:00;16.80;74.50
51863;DHT22;37900;52.996;6.278;2024-01-27T01:41:26;16.80;74.40
51863;DHT22;37900;52.996;6.278;2024-01-27T01:43:51;16.80;74.50
51863;DHT22;37900;52.996;6.278;2024-01-27T01:46:17;16.80;74.40
51863;DHT22;37900;52.996;6.278;2024-01-27T01:48:44;16.80;74.40
51863;DHT22;37900;52.996;6.278;2024-01-27T01:51:10;16.80;74.40
51863;DHT22;37900;52.996;6.278;2024-01-27T01:53:37;16.80;74.40
51863;DHT22;37900;52.996;6.278;2024-01-27T01:56:03;16.80;74.40
51863;DHT22;37900;52.996;6.278;2024-01-27T01:58:29;16.80;74.40
51863;DHT22;37900;52.996;6.278;2024-01-27T02:01:00;16.80;74.40
51863;DHT22;37900;52.996;6.278;2024-01-27T02:03:27;16.80;74.40
51863;DHT22;37900;52.996;6.278;2024-01-27T02:05:52;16.80;74.30
51863;DHT22;37900;52.996;6.278;2024-01-27T02:08:18;16.70;74.30
51863;DHT22;37900;52.996;6.278;2024-01-27T02:10:44;16.70;74.30
51863;DHT22;37900;52.996;6.278;2024-01-27T02:13:17;16.70;74.20
51863;DHT22;37900;52.996;6.278;2024-01-27T02:15:44;16.70;74.20
51863;DHT22;37900;52.996;6.278;2024-01-27T02:18:10;16.70;74.20
51863;DHT22;37900;52.996;6.278;2024-01-27T02:20:35;16.70;74.20
51863;DHT22;37900;52.996;6.278;2024-01-27T02:23:02;16.70;74.20
51863;DHT22;37900;52.996;6.278;2024-01-27T02:25:33;16.70;74.20
51863;DHT22;37900;52.996;6.278;2024-01-27T02:27:59;16.70;74.20
51863;DHT22;37900;52.996;6.278;2024-01-27T02:30:25;16.70;74.20
51863;DHT22;37900;52.996;6.278;2024-01-27T02:32:52;16.70;74.10
51863;DHT22;37900;52.996;6.278;2024-01-27T02:35:18;16.70;74.10
51863;DHT22;37900;52.996;6.278;2024-01-27T02:37:44;16.70;74.10
51863;DHT22;37900;52.996;6.278;2024-01-27T02:40:09;16.60;74.00
51863;DHT22;37900;52.996;6.278;2024-01-27T02:42:36;16.60;74.00
51863;DHT22;37900;52.996;6.278;2024-01-27T02:45:03;16.60;74.00
51863;DHT22;37900;52.996;6.278;2024-01-27T02:47:29;16.60;74.00
51863;DHT22;37900;52.996;6.278;2024-01-27T02:49:55;16.60;74.00
51863;DHT22;37900;52.996;6.278;2024-01-27T02:52:21;16.60;74.00
51863;DHT22;37900;52.996;6.278;2024-01-27T02:54:46;16.60;73.90
51863;DHT22;37900;52.996;6.278;2024-01-27T02:57:12;16.60;73.90
51863;DHT22;37900;52.996;6.278;2024-01-27T02:59:39;16.60;73.90
51863;DHT22;37900;52.996;6.278;2024-01-27T03:02:05;16.60;73.90
51863;DHT22;37900;52.996;6.278;2024-01-27T03:04:31;16.60;73.90
51863;DHT22;37900;52.996;6.278;2024-01-27T03:06:57;16.60;73.80
51863;DHT22;37900;52.996;6.278;2024-01-27T03:09:23;16.50;74.40
51863;DHT22;37900;52.996;6.278;2024-01-27T03:11:48;16.50;73.80
51863;DHT22;37900;52.996;6.278;2024-01-27T03:14:14;16.60;73.80
51863;DHT22;37900;52.996;6.278;2024-01-27T03:16:40;16.50;73.80
51863;DHT22;37900;52.996;6.278;2024-01-27T03:19:06;16.50;73.80
51863;DHT22;37900;52.996;6.278;2024-01-27T03:21:32;16.50;73.80
51863;DHT22;37900;52.996;6.278;2024-01-27T03:23:58;16.50;73.80
51863;DHT22;37900;52.996;6.278;2024-01-27T03:26:23;16.50;73.80
51863;DHT22;37900;52.996;6.278;2024-01-27T03:28:50;16.50;73.80
51863;DHT22;37900;52.996;6.278;2024-01-27T03:31:16;16.50;73.80
51863;DHT22;37900;52.996;6.278;2024-01-27T03:33:42;16.50;73.80
51863;DHT22;37900;52.996;6.278;2024-01-27T03:36:11;16.50;73.80
51863;DHT22;37900;52.996;6.278;2024-01-27T03:38:38;16.50;73.70
51863;DHT22;37900;52.996;6.278;2024-01-27T03:41:05;16.50;73.70
51863;DHT22;37900;52.996;6.278;2024-01-27T03:43:30;16.50;73.60
51863;DHT22;37900;52.996;6.278;2024-01-27T03:45:59;16.50;73.60
51863;DHT22;37900;52.996;6.278;2024-01-27T03:48:25;16.50;73.60
51863;DHT22;37900;52.996;6.278;2024-01-27T03:50:51;16.50;73.60
51863;DHT22;37900;52.996;6.278;2024-01-27T03:53:17;16.40;73.60
51863;DHT22;37900;52.996;6.278;2024-01-27T03:55:43;16.20;73.40
51863;DHT22;37900;52.996;6.278;2024-01-27T03:58:08;16.40;73.50
51863;DHT22;37900;52.996;6.278;2024-01-27T04:00:34;16.40;73.50
51863;DHT22;37900;52.996;6.278;2024-01-27T04:03:00;16.40;73.50
51863;DHT22;37900;52.996;6.278;2024-01-27T04:05:27;16.40;73.50
51863;DHT22;37900;52.996;6.278;2024-01-27T04:07:53;16.40;73.50
51863;DHT22;37900;52.996;6.278;2024-01-27T04:10:19;16.40;73.50
51863;DHT22;37900;52.996;6.278;2024-01-27T04:12:45;16.40;73.50
51863;DHT22;37900;52.996;6.278;2024-01-27T04:15:11;16.40;73.40
51863;DHT22;37900;52.996;6.278;2024-01-27T04:17:40;16.40;73.50
51863;DHT22;37900;52.996;6.278;2024-01-27T04:20:07;16.40;73.40
51863;DHT22;37900;52.996;6.278;2024-01-27T04:22:34;16.40;73.40
51863;DHT22;37900;52.996;6.278;2024-01-27T04:25:00;16.40;73.40
51863;DHT22;37900;52.996;6.278;2024-01-27T04:27:28;16.40;73.40
51863;DHT22;37900;52.996;6.278;2024-01-27T04:29:54;16.40;73.40
51863;DHT22;37900;52.996;6.278;2024-01-27T04:32:20;16.40;73.40
51863;DHT22;37900;52.996;6.278;2024-01-27T04:34:47;16.30;73.30
51863;DHT22;37900;52.996;6.278;2024-01-27T04:37:13;16.30;73.30
51863;DHT22;37900;52.996;6.278;2024-01-27T04:39:38;16.30;73.30
51863;DHT22;37900;52.996;6.278;2024-01-27T04:42:05;16.30;73.30
51863;DHT22;37900;52.996;6.278;2024-01-27T04:44:34;16.30;73.20
51863;DHT22;37900;52.996;6.278;2024-01-27T04:47:00;16.30;73.30
51863;DHT22;37900;52.996;6.278;2024-01-27T04:49:26;16.30;73.30
51863;DHT22;37900;52.996;6.278;2024-01-27T04:51:51;16.30;73.30
51863;DHT22;37900;52.996;6.278;2024-01-27T04:54:17;16.30;73.20
51863;DHT22;37900;52.996;6.278;2024-01-27T04:56:43;16.30;73.20
51863;DHT22;37900;52.996;6.278;2024-01-27T04:59:08;16.30;73.20
51863;DHT22;37900;52.996;6.278;2024-01-27T05:01:34;16.30;73.20
51863;DHT22;37900;52.996;6.278;2024-01-27T05:04:00;16.30;73.10
51863;DHT22;37900;52.996;6.278;2024-01-27T05:06:26;16.30;73.20
51863;DHT22;37900;52.996;6.278;2024-01-27T05:08:51;16.30;73.10
51863;DHT22;37900;52.996;6.278;2024-01-27T05:11:29;16.30;73.10
51863;DHT22;37900;52.996;6.278;2024-01-27T05:13:55;16.20;73.00
51863;DHT22;37900;52.996;6.278;2024-01-27T05:16:21;16.20;73.00
51863;DHT22;37900;52.996;6.278;2024-01-27T05:18:46;16.20;73.00
51863;DHT22;37900;52.996;6.278;2024-01-27T05:21:12;16.20;73.00
51863;DHT22;37900;52.996;6.278;2024-01-27T05:23:38;16.20;73.00
51863;DHT22;37900;52.996;6.278;2024-01-27T05:26:08;16.20;72.90
51863;DHT22;37900;52.996;6.278;2024-01-27T05:28:36;16.20;72.90
51863;DHT22;37900;52.996;6.278;2024-01-27T05:31:01;16.20;72.90
51863;DHT22;37900;52.996;6.278;2024-01-27T05:33:27;16.20;73.00
51863;DHT22;37900;52.996;6.278;2024-01-27T05:35:53;16.20;72.90
51863;DHT22;37900;52.996;6.278;2024-01-27T05:38:19;16.10;72.80
51863;DHT22;37900;52.996;6.278;2024-01-27T05:40:44;16.20;72.90
51863;DHT22;37900;52.996;6.278;2024-01-27T05:43:11;16.20;72.90
51863;DHT22;37900;52.996;6.278;2024-01-27T05:45:37;16.10;72.80
51863;DHT22;37900;52.996;6.278;2024-01-27T05:48:03;16.20;72.90
51863;DHT22;37900;52.996;6.278;2024-01-27T05:50:28;16.10;72.80
51863;DHT22;37900;52.996;6.278;2024-01-27T05:52:56;16.10;72.80
51863;DHT22;37900;52.996;6.278;2024-01-27T05:55:22;16.10;72.80
51863;DHT22;37900;52.996;6.278;2024-01-27T05:57:48;16.10;72.80
51863;DHT22;37900;52.996;6.278;2024-01-27T06:00:14;16.10;72.80
51863;DHT22;37900;52.996;6.278;2024-01-27T06:02:39;16.10;72.90
51863;DHT22;37900;52.996;6.278;2024-01-27T06:05:05;16.10;72.80
51863;DHT22;37900;52.996;6.278;2024-01-27T06:07:31;16.10;72.80
51863;DHT22;37900;52.996;6.278;2024-01-27T06:09:57;16.10;72.70
51863;DHT22;37900;52.996;6.278;2024-01-27T06:12:23;16.10;72.70
51863;DHT22;37900;52.996;6.278;2024-01-27T06:14:48;16.10;72.70
51863;DHT22;37900;52.996;6.278;2024-01-27T06:17:14;16.10;72.70
51863;DHT22;37900;52.996;6.278;2024-01-27T06:19:41;16.10;72.70
51863;DHT22;37900;52.996;6.278;2024-01-27T06:22:07;16.10;72.70
51863;DHT22;37900;52.996;6.278;2024-01-27T06:24:33;16.10;72.70
51863;DHT22;37900;52.996;6.278;2024-01-27T06:26:59;16.00;72.60
51863;DHT22;37900;52.996;6.278;2024-01-27T06:29:25;16.10;72.70
51863;DHT22;37900;52.996;6.278;2024-01-27T06:31:52;16.00;72.60
51863;DHT22;37900;52.996;6.278;2024-01-27T06:34:18;16.00;72.50
51863;DHT22;37900;52.996;6.278;2024-01-27T06:36:43;16.00;72.60
51863;DHT22;37900;52.996;6.278;2024-01-27T06:39:09;16.00;72.60
51863;DHT22;37900;52.996;6.278;2024-01-27T06:41:35;16.00;72.60
51863;DHT22;37900;52.996;6.278;2024-01-27T06:44:01;16.00;72.60
51863;DHT22;37900;52.996;6.278;2024-01-27T06:46:26;16.00;72.60
51863;DHT22;37900;52.996;6.278;2024-01-27T06:48:52;16.00;72.60
51863;DHT22;37900;52.996;6.278;2024-01-27T06:51:18;16.00;72.50
51863;DHT22;37900;52.996;6.278;2024-01-27T06:53:43;16.00;72.50
51863;DHT22;37900;52.996;6.278;2024-01-27T06:56:09;16.00;72.50
51863;DHT22;37900;52.996;6.278;2024-01-27T06:58:35;16.00;72.50
51863;DHT22;37900;52.996;6.278;2024-01-27T07:01:02;16.00;72.50
51863;DHT22;37900;52.996;6.278;2024-01-27T07:03:27;16.00;72.50
51863;DHT22;37900;52.996;6.278;2024-01-27T07:05:53;16.00;72.50
51863;DHT22;37900;52.996;6.278;2024-01-27T07:08:19;16.00;72.50
51863;DHT22;37900;52.996;6.278;2024-01-27T07:10:45;15.90;73.00
51863;DHT22;37900;52.996;6.278;2024-01-27T07:13:11;16.00;72.50
51863;DHT22;37900;52.996;6.278;2024-01-27T07:15:36;15.90;72.50
51863;DHT22;37900;52.996;6.278;2024-01-27T07:18:03;15.90;72.40
51863;DHT22;37900;52.996;6.278;2024-01-27T07:20:29;15.90;72.40
51863;DHT22;37900;52.996;6.278;2024-01-27T07:22:55;15.90;72.40
51863;DHT22;37900;52.996;6.278;2024-01-27T07:25:20;15.90;72.40
51863;DHT22;37900;52.996;6.278;2024-01-27T07:27:46;15.90;72.40
51863;DHT22;37900;52.996;6.278;2024-01-27T07:30:12;15.90;72.40
51863;DHT22;37900;52.996;6.278;2024-01-27T07:32:38;15.90;72.30
51863;DHT22;37900;52.996;6.278;2024-01-27T07:35:06;15.90;72.40
51863;DHT22;37900;52.996;6.278;2024-01-27T07:37:32;15.90;72.40
51863;DHT22;37900;52.996;6.278;2024-01-27T07:39:57;15.90;72.40
51863;DHT22;37900;52.996;6.278;2024-01-27T07:42:23;15.90;72.40
51863;DHT22;37900;52.996;6.278;2024-01-27T07:44:49;15.90;72.40
51863;DHT22;37900;52.996;6.278;2024-01-27T07:47:15;16.00;72.40
51863;DHT22;37900;52.996;6.278;2024-01-27T07:49:41;16.00;72.40
51863;DHT22;37900;52.996;6.278;2024-01-27T07:52:06;16.00;72.40
51863;DHT22;37900;52.996;6.278;2024-01-27T07:54:32;16.00;72.30
51863;DHT22;37900;52.996;6.278;2024-01-27T07:56:59;16.00;72.30
51863;DHT22;37900;52.996;6.278;2024-01-27T07:59:25;16.00;72.30
51863;DHT22;37900;52.996;6.278;2024-01-27T08:01:50;16.00;72.30
51863;DHT22;37900;52.996;6.278;2024-01-27T08:04:16;16.00;72.20
51863;DHT22;37900;52.996;6.278;2024-01-27T08:06:51;16.00;72.20
51863;DHT22;37900;52.996;6.278;2024-01-27T08:09:17;16.00;72.20
51863;DHT22;37900;52.996;6.278;2024-01-27T08:11:43;15.90;72.20
51863;DHT22;37900;52.996;6.278;2024-01-27T08:14:10;16.00;72.20
51863;DHT22;37900;52.996;6.278;2024-01-27T08:16:35;15.90;72.20
51863;DHT22;37900;52.996;6.278;2024-01-27T08:19:01;15.90;72.20
51863;DHT22;37900;52.996;6.278;2024-01-27T08:21:27;15.90;72.20
51863;DHT22;37900;52.996;6.278;2024-01-27T08:23:53;15.90;72.20
51863;DHT22;37900;52.996;6.278;2024-01-27T08:26:20;15.90;72.20
51863;DHT22;37900;52.996;6.278;2024-01-27T08:28:49;15.90;72.20
51863;DHT22;37900;52.996;6.278;2024-01-27T08:31:15;15.90;72.10
51863;DHT22;37900;52.996;6.278;2024-01-27T08:33:40;15.90;72.10
51863;DHT22;37900;52.996;6.278;2024-01-27T08:36:06;15.80;72.10
51863;DHT22;37900;52.996;6.278;2024-01-27T08:38:32;15.90;72.10
51863;DHT22;37900;52.996;6.278;2024-01-27T08:40:58;15.80;72.10
51863;DHT22;37900;52.996;6.278;2024-01-27T08:43:24;15.80;72.10
51863;DHT22;37900;52.996;6.278;2024-01-27T08:45:49;15.80;72.00
51863;DHT22;37900;52.996;6.278;2024-01-27T08:48:15;15.80;72.10
51863;DHT22;37900;52.996;6.278;2024-01-27T08:50:41;15.80;72.10
51863;DHT22;37900;52.996;6.278;2024-01-27T08:53:08;15.80;72.10
51863;DHT22;37900;52.996;6.278;2024-01-27T08:55:34;15.80;72.10
51863;DHT22;37900;52.996;6.278;2024-01-27T08:57:59;15.80;72.10
51863;DHT22;37900;52.996;6.278;2024-01-27T09:00:25;15.80;72.00
51863;DHT22;37900;52.996;6.278;2024-01-27T09:02:52;15.80;72.00
51863;DHT22;37900;52.996;6.278;2024-01-27T09:05:18;15.80;72.00
51863;DHT22;37900;52.996;6.278;2024-01-27T09:07:43;15.80;72.10
51863;DHT22;37900;52.996;6.278;2024-01-27T09:10:09;15.80;72.00
51863;DHT22;37900;52.996;6.278;2024-01-27T09:12:38;15.80;72.10
51863;DHT22;37900;52.996;6.278;2024-01-27T09:15:04;15.80;72.30
51863;DHT22;37900;52.996;6.278;2024-01-27T09:17:30;15.90;72.60
51863;DHT22;37900;52.996;6.278;2024-01-27T09:19:55;15.80;72.80
51863;DHT22;37900;52.996;6.278;2024-01-27T09:22:21;15.90;73.00
51863;DHT22;37900;52.996;6.278;2024-01-27T09:24:47;15.90;73.10
51863;DHT22;37900;52.996;6.278;2024-01-27T09:27:12;15.90;73.20
51863;DHT22;37900;52.996;6.278;2024-01-27T09:29:38;15.90;73.30
51863;DHT22;37900;52.996;6.278;2024-01-27T09:32:05;15.90;73.40
51863;DHT22;37900;52.996;6.278;2024-01-27T09:34:30;15.90;73.50
51863;DHT22;37900;52.996;6.278;2024-01-27T09:36:56;16.00;73.50
51863;DHT22;37900;52.996;6.278;2024-01-27T09:39:22;15.90;73.70
51863;DHT22;37900;52.996;6.278;2024-01-27T09:41:48;15.90;73.90
51863;DHT22;37900;52.996;6.278;2024-01-27T09:44:15;16.00;73.90
51863;DHT22;37900;52.996;6.278;2024-01-27T09:46:43;16.00;74.30
51863;DHT22;37900;52.996;6.278;2024-01-27T09:49:10;16.00;74.00
51863;DHT22;37900;52.996;6.278;2024-01-27T09:51:40;16.00;74.70
51863;DHT22;37900;52.996;6.278;2024-01-27T09:54:07;16.00;74.20
51863;DHT22;37900;52.996;6.278;2024-01-27T09:56:33;16.10;74.30
51863;DHT22;37900;52.996;6.278;2024-01-27T09:59:00;16.10;74.30
51863;DHT22;37900;52.996;6.278;2024-01-27T10:01:26;16.10;74.40
51863;DHT22;37900;52.996;6.278;2024-01-27T10:03:54;16.10;74.40
51863;DHT22;37900;52.996;6.278;2024-01-27T10:06:21;16.10;74.50
51863;DHT22;37900;52.996;6.278;2024-01-27T10:08:56;16.10;74.90
51863;DHT22;37900;52.996;6.278;2024-01-27T10:11:23;16.20;75.30
51863;DHT22;37900;52.996;6.278;2024-01-27T10:13:55;16.20;75.20
51863;DHT22;37900;52.996;6.278;2024-01-27T10:16:21;16.20;75.20
51863;DHT22;37900;52.996;6.278;2024-01-27T10:18:47;16.30;75.20
51863;DHT22;37900;52.996;6.278;2024-01-27T10:21:17;16.30;75.30
51863;DHT22;37900;52.996;6.278;2024-01-27T10:23:44;16.30;75.40
51863;DHT22;37900;52.996;6.278;2024-01-27T10:26:10;16.30;75.40
51863;DHT22;37900;52.996;6.278;2024-01-27T10:28:36;16.30;75.50
51863;DHT22;37900;52.996;6.278;2024-01-27T10:31:12;16.30;75.50
51863;DHT22;37900;52.996;6.278;2024-01-27T10:33:38;16.30;75.50
51863;DHT22;37900;52.996;6.278;2024-01-27T10:36:04;16.40;75.50
51863;DHT22;37900;52.996;6.278;2024-01-27T10:38:37;16.40;75.60
51863;DHT22;37900;52.996;6.278;2024-01-27T10:41:07;16.40;75.60
51863;DHT22;37900;52.996;6.278;2024-01-27T10:43:36;16.40;75.60
51863;DHT22;37900;52.996;6.278;2024-01-27T10:46:06;16.40;75.60
51863;DHT22;37900;52.996;6.278;2024-01-27T10:48:34;16.40;75.60
51863;DHT22;37900;52.996;6.278;2024-01-27T10:51:09;16.40;75.60
51863;DHT22;37900;52.996;6.278;2024-01-27T10:53:36;16.40;75.60
51863;DHT22;37900;52.996;6.278;2024-01-27T10:56:04;16.40;75.60
51863;DHT22;37900;52.996;6.278;2024-01-27T10:58:35;16.50;75.70
51863;DHT22;37900;52.996;6.278;2024-01-27T11:01:09;16.50;75.70
51863;DHT22;37900;52.996;6.278;2024-01-27T11:03:38;16.50;75.70
51863;DHT22;37900;52.996;6.278;2024-01-27T11:06:05;16.50;75.70
51863;DHT22;37900;52.996;6.278;2024-01-27T11:08:33;16.50;75.70
51863;DHT22;37900;52.996;6.278;2024-01-27T11:11:00;16.50;75.70
51863;DHT22;37900;52.996;6.278;2024-01-27T11:13:28;16.50;75.70
51863;DHT22;37900;52.996;6.278;2024-01-27T11:15:55;16.50;76.30
51863;DHT22;37900;52.996;6.278;2024-01-27T11:18:21;16.60;75.80
51863;DHT22;37900;52.996;6.278;2024-01-27T11:20:47;16.60;75.80
51863;DHT22;37900;52.996;6.278;2024-01-27T11:23:13;16.60;75.80
51863;DHT22;37900;52.996;6.278;2024-01-27T11:25:40;16.60;75.80
51863;DHT22;37900;52.996;6.278;2024-01-27T11:28:16;16.60;75.80
51863;DHT22;37900;52.996;6.278;2024-01-27T11:30:47;16.60;75.90
51863;DHT22;37900;52.996;6.278;2024-01-27T11:33:13;16.60;75.90
51863;DHT22;37900;52.996;6.278;2024-01-27T11:35:39;16.60;75.90
51863;DHT22;37900;52.996;6.278;2024-01-27T11:38:04;16.60;75.90
51863;DHT22;37900;52.996;6.278;2024-01-27T11:40:31;16.60;76.00
51863;DHT22;37900;52.996;6.278;2024-01-27T11:43:01;16.60;76.00
51863;DHT22;37900;52.996;6.278;2024-01-27T11:45:27;16.60;76.00
51863;DHT22;37900;52.996;6.278;2024-01-27T11:47:55;16.70;76.10
51863;DHT22;37900;52.996;6.278;2024-01-27T11:50:21;16.70;76.10
51863;DHT22;37900;52.996;6.278;2024-01-27T11:52:47;16.60;76.10
51863;DHT22;37900;52.996;6.278;2024-01-27T11:55:13;16.60;76.10
51863;DHT22;37900;52.996;6.278;2024-01-27T11:57:42;16.70;76.20
51863;DHT22;37900;52.996;6.278;2024-01-27T12:00:08;16.70;76.30
51863;DHT22;37900;52.996;6.278;2024-01-27T12:02:37;16.70;76.40
51863;DHT22;37900;52.996;6.278;2024-01-27T12:05:13;16.70;76.50
51863;DHT22;37900;52.996;6.278;2024-01-27T12:07:40;16.70;76.60
51863;DHT22;37900;52.996;6.278;2024-01-27T12:10:07;16.70;76.80
51863;DHT22;37900;52.996;6.278;2024-01-27T12:12:33;16.80;77.00
51863;DHT22;37900;52.996;6.278;2024-01-27T12:14:59;16.80;77.20
51863;DHT22;37900;52.996;6.278;2024-01-27T12:17:27;16.80;77.50
51863;DHT22;37900;52.996;6.278;2024-01-27T12:19:53;16.80;77.70
51863;DHT22;37900;52.996;6.278;2024-01-27T12:22:24;16.80;77.90
51863;DHT22;37900;52.996;6.278;2024-01-27T12:24:52;16.80;78.10
51863;DHT22;37900;52.996;6.278;2024-01-27T12:27:18;16.80;78.20
51863;DHT22;37900;52.996;6.278;2024-01-27T12:29:45;16.80;78.50
51863;DHT22;37900;52.996;6.278;2024-01-27T12:32:11;16.80;78.50
51863;DHT22;37900;52.996;6.278;2024-01-27T12:34:40;16.80;78.80
51863;DHT22;37900;52.996;6.278;2024-01-27T12:37:08;16.80;78.80
51863;DHT22;37900;52.996;6.278;2024-01-27T12:39:34;16.90;78.90
51863;DHT22;37900;52.996;6.278;2024-01-27T12:41:59;16.90;78.90
51863;DHT22;37900;52.996;6.278;2024-01-27T12:44:25;16.90;79.00
51863;DHT22;37900;52.996;6.278;2024-01-27T12:46:51;16.90;79.20
51863;DHT22;37900;52.996;6.278;2024-01-27T12:49:17;16.90;79.60
51863;DHT22;37900;52.996;6.278;2024-01-27T12:51:42;16.90;80.60
51863;DHT22;37900;52.996;6.278;2024-01-27T12:54:09;16.90;81.70
51863;DHT22;37900;52.996;6.278;2024-01-27T12:56:35;16.90;82.60
51863;DHT22;37900;52.996;6.278;2024-01-27T12:59:00;17.00;83.60
51863;DHT22;37900;52.996;6.278;2024-01-27T13:01:27;17.00;84.10
51863;DHT22;37900;52.996;6.278;2024-01-27T13:03:53;17.00;84.30
51863;DHT22;37900;52.996;6.278;2024-01-27T13:06:18;17.00;84.40
51863;DHT22;37900;52.996;6.278;2024-01-27T13:08:46;17.00;84.40
51863;DHT22;37900;52.996;6.278;2024-01-27T13:11:11;17.10;84.40
51863;DHT22;37900;52.996;6.278;2024-01-27T13:13:40;17.10;84.30
51863;DHT22;37900;52.996;6.278;2024-01-27T13:16:06;17.10;84.10
51863;DHT22;37900;52.996;6.278;2024-01-27T13:18:32;17.10;84.00
51863;DHT22;37900;52.996;6.278;2024-01-27T13:20:58;17.10;83.90
51863;DHT22;37900;52.996;6.278;2024-01-27T13:23:24;17.00;83.80
51863;DHT22;37900;52.996;6.278;2024-01-27T13:25:49;17.10;84.50
51863;DHT22;37900;52.996;6.278;2024-01-27T13:28:16;17.10;84.10
51863;DHT22;37900;52.996;6.278;2024-01-27T13:30:42;17.10;84.10
51863;DHT22;37900;52.996;6.278;2024-01-27T13:33:07;17.10;84.10
51863;DHT22;37900;52.996;6.278;2024-01-27T13:35:33;17.10;84.10
51863;DHT22;37900;52.996;6.278;2024-01-27T13:37:59;17.10;84.00
51863;DHT22;37900;52.996;6.278;2024-01-27T13:40:24;17.10;84.00
51863;DHT22;37900;52.996;6.278;2024-01-27T13:42:50;17.10;84.00
51863;DHT22;37900;52.996;6.278;2024-01-27T13:45:16;17.10;83.80
51863;DHT22;37900;52.996;6.278;2024-01-27T13:47:41;17.10;83.70
51863;DHT22;37900;52.996;6.278;2024-01-27T13:50:08;17.10;83.60
51863;DHT22;37900;52.996;6.278;2024-01-27T13:52:34;17.10;83.50
51863;DHT22;37900;52.996;6.278;2024-01-27T13:54:59;17.10;83.50
51863;DHT22;37900;52.996;6.278;2024-01-27T13:57:25;17.10;83.40
51863;DHT22;37900;52.996;6.278;2024-01-27T13:59:51;17.10;83.30
51863;DHT22;37900;52.996;6.278;2024-01-27T14:02:17;17.10;83.20
51863;DHT22;37900;52.996;6.278;2024-01-27T14:04:42;17.10;83.20
51863;DHT22;37900;52.996;6.278;2024-01-27T14:07:08;17.00;83.20
51863;DHT22;37900;52.996;6.278;2024-01-27T14:09:35;17.10;83.40
51863;DHT22;37900;52.996;6.278;2024-01-27T14:12:01;17.10;83.50
51863;DHT22;37900;52.996;6.278;2024-01-27T14:14:27;17.10;83.60
51863;DHT22;37900;52.996;6.278;2024-01-27T14:16:53;17.10;83.70
51863;DHT22;37900;52.996;6.278;2024-01-27T14:19:19;17.10;83.60
51863;DHT22;37900;52.996;6.278;2024-01-27T14:21:45;17.10;83.50
51863;DHT22;37900;52.996;6.278;2024-01-27T14:24:11;17.10;83.40
51863;DHT22;37900;52.996;6.278;2024-01-27T14:26:37;17.10;83.20
51863;DHT22;37900;52.996;6.278;2024-01-27T14:29:03;17.20;83.30
51863;DHT22;37900;52.996;6.278;2024-01-27T14:31:30;17.20;83.20
51863;DHT22;37900;52.996;6.278;2024-01-27T14:33:56;17.10;83.10
51863;DHT22;37900;52.996;6.278;2024-01-27T14:36:22;17.10;83.10
51863;DHT22;37900;52.996;6.278;2024-01-27T14:38:49;17.10;83.00
51863;DHT22;37900;52.996;6.278;2024-01-27T14:41:15;17.10;83.00
51863;DHT22;37900;52.996;6.278;2024-01-27T14:43:41;17.10;83.00
51863;DHT22;37900;52.996;6.278;2024-01-27T14:46:07;17.10;82.90
51863;DHT22;37900;52.996;6.278;2024-01-27T14:48:33;17.10;82.90
51863;DHT22;37900;52.996;6.278;2024-01-27T14:50:59;17.10;82.80
51863;DHT22;37900;52.996;6.278;2024-01-27T14:53:28;17.10;82.80
51863;DHT22;37900;52.996;6.278;2024-01-27T14:55:55;17.10;82.80
51863;DHT22;37900;52.996;6.278;2024-01-27T14:58:24;17.10;82.70
51863;DHT22;37900;52.996;6.278;2024-01-27T15:00:50;17.10;82.70
51863;DHT22;37900;52.996;6.278;2024-01-27T15:03:23;17.10;82.60
51863;DHT22;37900;52.996;6.278;2024-01-27T15:05:52;17.10;82.80
51863;DHT22;37900;52.996;6.278;2024-01-27T15:08:18;17.10;82.90
51863;DHT22;37900;52.996;6.278;2024-01-27T15:10:44;17.10;83.20
51863;DHT22;37900;52.996;6.278;2024-01-27T15:13:11;17.10;83.50
51863;DHT22;37900;52.996;6.278;2024-01-27T15:15:40;17.10;83.80
51863;DHT22;37900;52.996;6.278;2024-01-27T15:18:07;17.10;83.80
51863;DHT22;37900;52.996;6.278;2024-01-27T15:20:34;17.20;83.70
51863;DHT22;37900;52.996;6.278;2024-01-27T15:23:00;17.20;83.60
51863;DHT22;37900;52.996;6.278;2024-01-27T15:25:25;17.20;83.80